Time;durP1;ratioP1;P1;durP2;ratioP2;P2;SDS_P1;SDS_P2;PMS_P1;PMS_P2;Temp;Humidity;BMP_temperature;BMP_pressure;BME280_temperature;BME280_humidity;BME280_pressure;Samples;Min_cycle;Max_cycle;Signal;HPM_P1;HPM_P2
2021/10/15 00:02:39;;;;;;;5.10;2.10;;;14.50;98.10;;;;;;6272452;22;20488;-87
2021/10/15 00:05:08;;;;;;;5.20;2.67;;;14.30;98.10;;;;;;6224499;23;20412;-83
2021/10/15 00:07:34;;;;;;;3.63;2.40;;;14.30;98.10;;;;;;6251526;23;20490;-84
2021/10/15 00:10:09;;;;;;;2.93;2.33;;;14.20;98.20;;;;;;6228022;23;20439;-86
2021/10/15 00:12:36;;;;;;;4.37;2.33;;;14.10;98.10;;;;;;6225590;23;20489;-85
2021/10/15 00:15:05;;;;;;;4.30;3.40;;;14.10;98.20;;;;;;6226784;23;20981;-87
2021/10/15 00:17:41;;;;;;;11.13;3.10;;;14.10;98.20;;;;;;6225104;23;20414;-84
2021/10/15 00:20:10;;;;;;;2.90;2.30;;;13.90;98.30;;;;;;6225205;23;20404;-84
2021/10/15 00:22:38;;;;;;;6.60;2.73;;;13.90;98.40;;;;;;6251449;22;20466;-85
2021/10/15 00:25:06;;;;;;;3.03;2.60;;;13.90;98.50;;;;;;6200687;23;20412;-86
2021/10/15 00:27:34;;;;;;;4.57;2.70;;;13.90;98.50;;;;;;6250936;23;20435;-84
2021/10/15 00:30:01;;;;;;;3.23;2.80;;;13.80;98.50;;;;;;6221480;23;20529;-86
2021/10/15 00:32:28;;;;;;;3.43;2.40;;;13.80;98.80;;;;;;6245507;22;20451;-85
2021/10/15 00:35:09;;;;;;;4.53;3.00;;;13.70;98.70;;;;;;6228412;23;20392;-83
2021/10/15 00:37:37;;;;;;;5.47;3.23;;;13.70;98.90;;;;;;6227287;23;20412;-85
2021/10/15 00:40:06;;;;;;;5.70;3.50;;;13.80;98.90;;;;;;6226178;23;20412;-86
2021/10/15 00:42:37;;;;;;;9.57;3.20;;;13.70;98.90;;;;;;6226410;23;20412;-86
2021/10/15 00:45:04;;;;;;;3.57;2.70;;;13.70;99.00;;;;;;6252878;22;20423;-85
2021/10/15 00:47:31;;;;;;;5.63;3.37;;;13.60;99.00;;;;;;6227213;23;20464;-86
2021/10/15 00:50:01;;;;;;;4.83;2.80;;;13.60;99.00;;;;;;6224079;23;20404;-85
2021/10/15 00:52:30;;;;;;;7.73;3.57;;;13.50;99.00;;;;;;6223423;23;20527;-85
2021/10/15 00:54:57;;;;;;;5.00;4.33;;;13.50;99.20;;;;;;6224305;23;20491;-85
2021/10/15 00:57:26;;;;;;;3.00;2.70;;;13.40;99.30;;;;;;6223399;23;21353;-84
2021/10/15 01:03:42;;;;;;;5.40;3.13;;;13.30;99.60;;;;;;6243090;22;20475;-85
2021/10/15 01:06:10;;;;;;;9.57;2.97;;;13.30;99.70;;;;;;6222557;23;20385;-86
2021/10/15 01:08:47;;;;;;;3.23;2.90;;;13.20;99.90;;;;;;6223015;23;20435;-84
2021/10/15 01:11:15;;;;;;;4.00;3.60;;;13.10;99.90;;;;;;6227872;23;20406;-88
2021/10/15 01:13:43;;;;;;;6.40;3.60;;;13.10;99.90;;;;;;6236289;23;20510;-87
2021/10/15 01:16:11;;;;;;;7.23;3.23;;;13.10;99.90;;;;;;6237740;22;20404;-88
2021/10/15 01:18:42;;;;;;;6.90;2.73;;;13.00;99.90;;;;;;6239543;23;20456;-87
2021/10/15 01:21:21;;;;;;;3.50;3.20;;;13.00;99.90;;;;;;6242613;22;20440;-86
2021/10/15 01:23:49;;;;;;;3.30;3.00;;;12.90;99.90;;;;;;6265943;22;20427;-86
2021/10/15 01:26:24;;;;;;;4.27;3.23;;;12.90;99.90;;;;;;6233398;22;20407;-85
2021/10/15 01:29:02;;;;;;;4.60;3.27;;;12.90;99.90;;;;;;6265896;22;20645;-86
2021/10/15 01:31:57;;;;;;;5.50;3.57;;;12.90;99.90;;;;;;6266465;22;20470;-88
2021/10/15 01:34:43;;;;;;;4.60;3.70;;;12.90;99.90;;;;;;6206710;23;20388;-85
2021/10/15 01:37:23;;;;;;;6.27;3.40;;;12.80;99.90;;;;;;6231369;23;20408;-86
2021/10/15 01:40:07;;;;;;;3.90;3.27;;;12.80;99.90;;;;;;6235659;23;20503;-84
2021/10/15 01:46:44;;;;;;;6.67;3.10;;;12.80;99.90;;;;;;6256294;23;20387;-86
2021/10/15 01:49:26;;;;;;;5.90;3.33;;;12.70;99.90;;;;;;6213892;23;20439;-87
2021/10/15 01:51:57;;;;;;;7.10;3.70;;;12.70;99.90;;;;;;6234146;22;20436;-87
2021/10/15 01:54:44;;;;;;;3.70;3.40;;;12.70;99.90;;;;;;6228565;23;20422;-86
2021/10/15 01:57:12;;;;;;;4.30;3.23;;;12.60;99.90;;;;;;6230714;23;20479;-88
2021/10/15 01:59:42;;;;;;;3.87;3.40;;;12.60;99.90;;;;;;6239919;22;20435;-87
2021/10/15 02:07:32;;;;;;;5.60;3.80;;;12.50;99.90;;;;;;6288899;22;20494;-87
2021/10/15 02:19:11;;;;;;;4.20;3.80;;;12.40;99.90;;;;;;6277094;22;20439;-89
2021/10/15 02:24:42;;;;;;;5.77;3.63;;;12.30;99.90;;;;;;6285302;22;20447;-85
2021/10/15 02:27:29;;;;;;;4.90;3.37;;;12.30;99.90;;;;;;6280436;22;20412;-86
2021/10/15 02:29:59;;;;;;;3.97;3.53;;;12.30;99.90;;;;;;6288048;22;20404;-87
2021/10/15 02:32:27;;;;;;;6.50;3.30;;;12.30;99.90;;;;;;6283456;22;20452;-87
2021/10/15 02:34:55;;;;;;;4.60;3.93;;;12.30;99.90;;;;;;6205273;23;20377;-87
2021/10/15 02:37:21;;;;;;;3.97;3.67;;;12.30;99.90;;;;;;6250599;23;20415;-86
2021/10/15 02:44:30;;;;;;;4.30;3.40;;;12.30;99.90;;;;;;6243845;22;20469;-86
2021/10/15 02:47:34;;;;;;;6.67;3.47;;;12.20;99.90;;;;;;6285764;22;20479;-85
2021/10/15 02:50:02;;;;;;;6.20;3.13;;;12.20;99.90;;;;;;6279845;22;20418;-87
2021/10/15 02:52:39;;;;;;;3.67;3.20;;;12.10;99.90;;;;;;6275587;22;20492;-85
2021/10/15 02:55:06;;;;;;;3.50;3.20;;;12.10;99.90;;;;;;6222136;23;20400;-85
2021/10/15 02:57:39;;;;;;;3.97;3.67;;;12.00;99.90;;;;;;6222994;23;20495;-85
2021/10/15 03:00:08;;;;;;;4.83;3.30;;;12.00;99.90;;;;;;6224445;23;20421;-87
2021/10/15 03:02:35;;;;;;;3.70;3.33;;;12.10;99.90;;;;;;6225207;23;20424;-84
2021/10/15 03:05:01;;;;;;;5.10;3.07;;;12.00;99.90;;;;;;6253544;23;20404;-87
2021/10/15 03:07:30;;;;;;;6.33;3.70;;;12.00;99.90;;;;;;6254296;23;20419;-87
2021/10/15 03:14:11;;;;;;;5.20;3.33;;;12.00;99.90;;;;;;6255527;22;20434;-89
2021/10/15 03:16:41;;;;;;;4.00;3.20;;;11.90;99.90;;;;;;6229396;23;20411;-86
2021/10/15 03:19:07;;;;;;;4.23;3.37;;;12.00;99.90;;;;;;6251593;23;20414;-86
2021/10/15 03:21:34;;;;;;;4.33;3.30;;;12.10;99.90;;;;;;6233562;23;20484;-87
2021/10/15 03:25:00;;;;;;;;;;;;;;;;;;;;;
2021/10/15 03:32:30;;;;;;;5.03;3.43;;;12.00;99.90;;;;;;6257479;23;20340;-84
2021/10/15 03:34:58;;;;;;;7.57;3.63;;;12.10;99.90;;;;;;6255522;23;20419;-84
2021/10/15 03:37:24;;;;;;;4.90;3.10;;;12.10;99.90;;;;;;6257280;23;20422;-86
2021/10/15 03:39:54;;;;;;;4.93;3.70;;;12.10;99.90;;;;;;6230211;23;20420;-88
2021/10/15 03:42:31;;;;;;;4.10;3.13;;;12.00;99.90;;;;;;6256920;22;20428;-86
2021/10/15 03:45:13;;;;;;;5.83;3.63;;;12.20;99.90;;;;;;6231473;23;20580;-86
2021/10/15 03:47:44;;;;;;;6.50;4.20;;;12.20;99.90;;;;;;6232393;23;20388;-87
2021/10/15 03:50:13;;;;;;;8.30;4.00;;;12.20;99.90;;;;;;6232882;23;20446;-85
2021/10/15 03:55:55;;;;;;;5.57;3.90;;;12.10;99.90;;;;;;6269482;22;20470;-87
2021/10/15 03:58:22;;;;;;;6.17;4.03;;;12.10;99.90;;;;;;6288455;22;20415;-85
2021/10/15 04:00:55;;;;;;;4.83;4.17;;;12.20;99.90;;;;;;6291278;22;20410;-85
2021/10/15 04:03:35;;;;;;;4.67;4.27;;;12.10;99.90;;;;;;6271773;22;20975;-85
2021/10/15 04:10:05;;;;;;;6.83;4.23;;;12.10;99.90;;;;;;6208083;23;20414;-86
2021/10/15 04:12:37;;;;;;;4.50;3.80;;;12.20;99.90;;;;;;6233979;23;20439;-86
2021/10/15 04:15:05;;;;;;;7.27;4.70;;;12.20;99.90;;;;;;6264551;23;20411;-85
2021/10/15 04:17:35;;;;;;;5.30;4.80;;;12.20;99.90;;;;;;6240240;23;20424;-84
2021/10/15 04:30:25;;;;;;;7.33;4.47;;;12.10;99.90;;;;;;6280675;22;20829;-86
2021/10/15 04:36:41;;;;;;;5.83;4.53;;;12.20;99.90;;;;;;6249755;23;20515;-85
2021/10/15 04:39:08;;;;;;;4.53;3.57;;;12.20;99.90;;;;;;6224315;23;20432;-84
2021/10/15 04:45:23;;;;;;;5.23;3.47;;;12.30;99.90;;;;;;6263060;23;20427;-87
2021/10/15 04:48:08;;;;;;;6.20;3.97;;;12.20;99.90;;;;;;6260581;23;20409;-86
2021/10/15 04:50:41;;;;;;;4.10;3.70;;;12.30;99.90;;;;;;6230939;23;20435;-86
2021/10/15 04:53:08;;;;;;;5.60;3.53;;;12.40;99.90;;;;;;6253326;22;20583;-86
2021/10/15 04:55:37;;;;;;;5.33;4.83;;;12.40;99.90;;;;;;6252502;23;20400;-84
2021/10/15 04:58:07;;;;;;;7.63;3.70;;;12.30;99.90;;;;;;6225532;23;20526;-86
2021/10/15 05:14:05;;;;;;;6.70;3.77;;;12.50;99.90;;;;;;6242433;22;20451;-87
2021/10/15 05:16:32;;;;;;;4.03;3.50;;;12.60;99.90;;;;;;6215990;23;20416;-85
2021/10/15 05:25:12;;;;;;;5.47;3.67;;;12.60;99.90;;;;;;6218438;22;20458;-83
2021/10/15 05:38:06;;;;;;;6.60;3.93;;;12.80;99.90;;;;;;6273835;22;20470;-86
2021/10/15 05:44:21;;;;;;;4.57;3.37;;;12.70;99.80;;;;;;6267011;22;20466;-85
2021/10/15 06:08:32;;;;;;;4.33;3.50;;;13.10;99.30;;;;;;6039498;23;20765;-85
2021/10/15 06:16:53;;;;;;;7.53;3.63;;;13.10;99.40;;;;;;5980614;24;20399;-85
2021/10/15 06:19:28;;;;;;;3.90;3.50;;;13.10;99.70;;;;;;5952805;24;20417;-83
2021/10/15 06:21:58;;;;;;;4.57;3.50;;;13.00;99.60;;;;;;5952758;24;20512;-83
2021/10/15 06:24:53;;;;;;;5.33;4.10;;;13.00;99.90;;;;;;5991720;23;20448;-86
2021/10/15 06:35:02;;;;;;;6.17;3.67;;;13.20;99.30;;;;;;6279035;22;21330;-84
2021/10/15 06:50:38;;;;;;;8.53;4.20;;;13.00;99.90;;;;;;6279898;22;20443;-84
2021/10/15 07:18:09;;;;;;;5.30;4.00;;;13.70;99.10;;;;;;6092022;23;20392;-86
2021/10/15 07:24:32;;;;;;;5.03;4.03;;;13.60;99.30;;;;;;6242682;22;20455;-86
2021/10/15 07:46:30;;;;;;;5.47;4.27;;;13.70;99.30;;;;;;6247092;23;20363;-82
2021/10/15 07:48:57;;;;;;;8.20;3.90;;;13.80;99.40;;;;;;6222427;23;20400;-84
2021/10/15 07:51:34;;;;;;;4.20;3.70;;;13.90;99.20;;;;;;6217613;23;20432;-86
2021/10/15 07:54:27;;;;;;;9.63;4.90;;;13.90;99.10;;;;;;6222242;23;20450;-83
2021/10/15 07:56:54;;;;;;;6.63;4.33;;;13.90;99.30;;;;;;6219692;23;20389;-83
2021/10/15 07:59:21;;;;;;;5.13;4.10;;;13.90;99.60;;;;;;6244730;23;20411;-85
2021/10/15 08:01:47;;;;;;;8.50;4.77;;;13.90;99.80;;;;;;6244461;23;20404;-84
2021/10/15 08:04:20;;;;;;;5.10;4.57;;;13.90;99.90;;;;;;6212519;23;20441;-87
2021/10/15 08:07:08;;;;;;;5.60;3.83;;;13.90;99.90;;;;;;6218978;23;20408;-85
2021/10/15 08:09:39;;;;;;;5.10;4.30;;;14.00;99.90;;;;;;6217446;23;20416;-86
2021/10/15 08:12:06;;;;;;;5.50;4.10;;;14.10;99.90;;;;;;6218628;22;20487;-85
2021/10/15 08:14:33;;;;;;;7.67;4.60;;;14.10;99.90;;;;;;6218721;23;20443;-84
2021/10/15 08:17:10;;;;;;;7.20;5.03;;;14.00;99.90;;;;;;6221374;23;20412;-85
2021/10/15 08:19:50;;;;;;;5.60;4.30;;;14.10;99.90;;;;;;6228928;23;20408;-86
2021/10/15 08:22:19;;;;;;;6.30;5.07;;;14.00;99.90;;;;;;6228996;22;20587;-85
2021/10/15 08:24:55;;;;;;;6.00;5.33;;;14.00;99.90;;;;;;6224994;23;20416;-86
2021/10/15 08:27:24;;;;;;;4.80;3.77;;;14.40;99.90;;;;;;6218139;23;20412;-85
2021/10/15 08:29:56;;;;;;;5.90;4.33;;;14.40;99.90;;;;;;6239013;23;20416;-86
2021/10/15 08:32:23;;;;;;;4.30;3.53;;;14.50;99.90;;;;;;6235205;22;20435;-84
2021/10/15 08:34:50;;;;;;;5.63;4.67;;;14.40;99.90;;;;;;6208589;23;20754;-83
2021/10/15 08:37:17;;;;;;;7.40;5.10;;;14.50;99.90;;;;;;6234540;23;20405;-84
2021/10/15 08:39:43;;;;;;;5.87;4.13;;;14.40;99.90;;;;;;6207566;23;20399;-81
2021/10/15 08:42:10;;;;;;;9.10;5.50;;;14.30;99.90;;;;;;6234762;22;20404;-84
2021/10/15 08:44:41;;;;;;;6.50;4.50;;;14.60;99.90;;;;;;6208617;23;20388;-83
2021/10/15 08:47:12;;;;;;;8.00;5.20;;;14.50;99.90;;;;;;6208627;23;20404;-82
2021/10/15 08:49:59;;;;;;;7.60;4.57;;;14.30;99.90;;;;;;6211953;23;20400;-83
2021/10/15 08:52:26;;;;;;;7.87;4.80;;;14.20;99.90;;;;;;6234991;22;20435;-83
2021/10/15 08:54:53;;;;;;;7.53;4.63;;;14.10;99.90;;;;;;6235219;23;20444;-82
2021/10/15 08:57:20;;;;;;;7.30;4.40;;;14.10;99.90;;;;;;6207878;23;20419;-82
2021/10/15 08:59:50;;;;;;;6.30;4.83;;;14.30;99.90;;;;;;6208762;23;20404;-83
2021/10/15 09:02:25;;;;;;;6.33;4.97;;;14.20;99.90;;;;;;6207033;22;20422;-84
2021/10/15 09:05:06;;;;;;;6.97;5.10;;;14.40;99.90;;;;;;6238420;23;20426;-82
2021/10/15 09:07:53;;;;;;;9.93;5.20;;;14.50;99.90;;;;;;6213195;23;20510;-82
2021/10/15 09:10:21;;;;;;;9.70;6.53;;;14.40;99.90;;;;;;6236209;23;20410;-83
2021/10/15 09:12:56;;;;;;;7.20;5.03;;;14.30;99.90;;;;;;6208005;23;20432;-83
2021/10/15 09:15:33;;;;;;;8.57;5.60;;;14.20;99.90;;;;;;6208402;23;20442;-83
2021/10/15 09:18:19;;;;;;;9.53;5.27;;;14.20;99.90;;;;;;6209043;23;20438;-84
2021/10/15 09:20:48;;;;;;;5.27;4.77;;;14.20;99.90;;;;;;6235375;23;20408;-83
2021/10/15 09:23:16;;;;;;;7.53;4.77;;;14.20;99.90;;;;;;6237300;22;20435;-81
2021/10/15 09:25:45;;;;;;;7.67;4.80;;;14.40;99.90;;;;;;6209827;23;20412;-82
2021/10/15 09:28:17;;;;;;;8.70;5.50;;;14.50;99.90;;;;;;6214225;23;20416;-83
2021/10/15 09:30:48;;;;;;;11.00;5.40;;;14.50;99.90;;;;;;6241483;23;20466;-83
2021/10/15 09:33:18;;;;;;;10.67;5.43;;;14.40;99.90;;;;;;6215152;23;20498;-85
2021/10/15 09:35:46;;;;;;;5.93;4.63;;;14.40;99.90;;;;;;6210082;23;20416;-83
2021/10/15 09:38:14;;;;;;;8.43;7.27;;;14.50;99.90;;;;;;6208999;23;20752;-83
2021/10/15 09:40:48;;;;;;;9.40;5.37;;;14.50;99.90;;;;;;6207318;23;20420;-84
2021/10/15 09:43:15;;;;;;;7.87;4.23;;;14.50;99.90;;;;;;6206362;23;20428;-84
2021/10/15 09:53:37;;;;;;;9.23;5.40;;;14.40;99.90;;;;;;6139474;23;20398;-81
2021/10/15 09:56:49;;;;;;;6.43;5.60;;;14.40;99.90;;;;;;6098167;23;20470;-83
2021/10/15 09:59:15;;;;;;;11.20;5.67;;;14.40;99.90;;;;;;6139562;23;20765;-82
2021/10/15 10:01:43;;;;;;;11.50;7.00;;;14.50;99.90;;;;;;6138435;23;20789;-80
2021/10/15 10:04:11;;;;;;;8.60;5.27;;;14.40;99.90;;;;;;6114229;23;20427;-82
2021/10/15 10:06:38;;;;;;;9.77;6.10;;;14.40;99.90;;;;;;6114177;23;20419;-83
2021/10/15 10:09:06;;;;;;;5.57;4.93;;;14.40;99.90;;;;;;6140706;23;20726;-83
2021/10/15 10:11:35;;;;;;;8.43;6.50;;;14.30;99.90;;;;;;6140470;23;20934;-83
2021/10/15 10:14:20;;;;;;;6.37;5.70;;;14.20;99.90;;;;;;6125430;23;20526;-86
2021/10/15 10:16:53;;;;;;;7.97;6.90;;;14.20;99.90;;;;;;6134197;23;20547;-84
2021/10/15 10:19:28;;;;;;;9.67;6.60;;;14.10;99.90;;;;;;6129147;23;20501;-82
2021/10/15 10:21:59;;;;;;;7.27;5.53;;;14.10;99.90;;;;;;6120724;23;20446;-83
2021/10/15 10:24:33;;;;;;;8.50;5.17;;;14.10;99.90;;;;;;6119880;23;20462;-84
2021/10/15 10:28:11;;;;;;;7.80;5.50;;;14.00;99.90;;;;;;6099962;23;20422;-82
2021/10/15 10:31:38;;;;;;;6.03;4.87;;;14.00;99.90;;;;;;6113963;23;21253;-80
2021/10/15 10:46:10;;;;;;;7.10;5.43;;;14.20;99.90;;;;;;6093382;23;20364;-82
2021/10/15 10:48:49;;;;;;;6.67;6.07;;;14.20;99.90;;;;;;6070362;23;20412;-84
2021/10/15 10:51:19;;;;;;;6.27;5.67;;;14.30;99.90;;;;;;6223173;23;20422;-84
2021/10/15 10:54:17;;;;;;;6.60;5.20;;;14.20;99.90;;;;;;6243992;23;20628;-85
2021/10/15 10:56:50;;;;;;;6.20;5.13;;;14.30;99.90;;;;;;6240204;23;20403;-82
2021/10/15 11:01:48;;;;;;;6.80;5.50;;;14.30;99.90;;;;;;6238596;23;20757;-82
2021/10/15 11:04:28;;;;;;;6.87;5.93;;;14.20;99.90;;;;;;6207655;23;20436;-83
2021/10/15 11:07:05;;;;;;;8.20;5.80;;;14.30;99.90;;;;;;6208250;23;20515;-83
2021/10/15 11:09:46;;;;;;;6.60;5.30;;;14.20;99.90;;;;;;6209312;23;20412;-84
2021/10/15 11:12:35;;;;;;;6.63;5.67;;;14.30;99.90;;;;;;6238279;23;21004;-85
2021/10/15 11:15:09;;;;;;;7.13;6.43;;;14.30;99.90;;;;;;6193019;23;20736;-84
2021/10/15 11:17:48;;;;;;;7.33;6.00;;;14.30;99.90;;;;;;6235872;23;20401;-85
2021/10/15 11:20:22;;;;;;;7.33;5.83;;;14.30;99.90;;;;;;6236691;23;20459;-85
2021/10/15 11:22:56;;;;;;;6.63;6.03;;;14.30;99.90;;;;;;6214160;23;20424;-83
2021/10/15 11:25:27;;;;;;;6.60;5.90;;;14.30;99.90;;;;;;6211632;23;20497;-82
2021/10/15 11:28:16;;;;;;;6.47;5.87;;;14.20;99.90;;;;;;6216853;23;20426;-81
2021/10/15 11:30:47;;;;;;;7.43;4.83;;;14.20;99.90;;;;;;6242781;23;20392;-82
2021/10/15 11:33:17;;;;;;;6.10;5.50;;;14.20;99.90;;;;;;6241814;23;20416;-80
2021/10/15 11:35:46;;;;;;;5.63;5.03;;;14.20;99.90;;;;;;6215751;23;20439;-81
2021/10/15 11:38:27;;;;;;;4.97;4.47;;;14.20;99.90;;;;;;6215315;23;20410;-86
2021/10/15 11:40:59;;;;;;;3.60;3.30;;;14.30;99.90;;;;;;6213796;23;20415;-82
2021/10/15 11:43:34;;;;;;;3.90;3.60;;;14.20;99.90;;;;;;6212760;23;20515;-86
2021/10/15 11:46:14;;;;;;;3.50;3.20;;;14.30;99.90;;;;;;6247344;22;20463;-87
2021/10/15 11:48:48;;;;;;;5.40;3.67;;;14.30;99.90;;;;;;6264062;22;20458;-84
2021/10/15 11:51:26;;;;;;;4.03;3.60;;;14.30;99.90;;;;;;6265868;22;20408;-85
2021/10/15 11:53:56;;;;;;;5.10;3.47;;;14.30;99.90;;;;;;6240475;22;20436;-86
2021/10/15 11:56:29;;;;;;;4.07;3.77;;;14.30;99.90;;;;;;6228195;23;20789;-84
2021/10/15 11:58:59;;;;;;;4.27;3.47;;;14.30;99.90;;;;;;6260682;22;20466;-83
2021/10/15 12:01:43;;;;;;;5.00;4.20;;;14.50;99.90;;;;;;6292627;22;20732;-83
2021/10/15 12:07:51;;;;;;;4.63;3.43;;;15.10;99.90;;;;;;6243011;22;20398;-83
2021/10/15 12:10:59;;;;;;;4.83;3.67;;;15.20;99.90;;;;;;6267428;22;20426;-86
2021/10/15 12:13:26;;;;;;;4.40;4.00;;;15.20;99.90;;;;;;6251793;22;21023;-85
2021/10/15 12:15:52;;;;;;;6.10;3.90;;;15.20;99.90;;;;;;6239461;23;20440;-82
2021/10/15 12:18:31;;;;;;;4.17;3.77;;;15.20;99.90;;;;;;6215840;23;20414;-83
2021/10/15 12:21:12;;;;;;;3.90;3.60;;;15.10;99.90;;;;;;6211187;23;20411;-86
2021/10/15 12:24:02;;;;;;;4.70;4.00;;;15.10;99.90;;;;;;6212168;23;20424;-84
2021/10/15 12:26:29;;;;;;;5.20;4.27;;;15.10;99.90;;;;;;6209206;23;20439;-83
2021/10/15 12:28:56;;;;;;;5.67;4.67;;;15.20;99.90;;;;;;6210827;23;20416;-82
2021/10/15 12:31:35;;;;;;;5.60;4.20;;;15.20;99.90;;;;;;6237086;23;20419;-86
2021/10/15 12:34:13;;;;;;;4.17;3.77;;;15.20;99.90;;;;;;6238452;22;20440;-83
2021/10/15 12:36:42;;;;;;;4.80;4.10;;;15.80;99.90;;;;;;6212079;23;20416;-86
2021/10/15 12:39:23;;;;;;;5.97;4.03;;;16.10;99.90;;;;;;6235557;23;20420;-84
2021/10/15 12:41:53;;;;;;;4.80;3.30;;;15.80;99.90;;;;;;6235782;23;20969;-83
2021/10/15 12:44:22;;;;;;;4.33;3.20;;;15.60;99.90;;;;;;6235942;22;20439;-86
2021/10/15 12:46:56;;;;;;;3.70;3.40;;;15.60;99.90;;;;;;6236565;23;20451;-84
2021/10/15 12:49:23;;;;;;;4.80;3.23;;;15.60;99.90;;;;;;6239222;23;20421;-83
2021/10/15 12:51:50;;;;;;;4.03;2.90;;;16.00;99.90;;;;;;6238706;23;20701;-84
2021/10/15 12:57:33;;;;;;;5.03;3.00;;;15.80;99.90;;;;;;6270598;22;21528;-83
2021/10/15 13:04:58;;;;;;;;;;;;;;;;;;;;;
2021/10/15 13:07:48;;;;;;;2.60;2.00;;;15.80;99.90;;;;;;6028684;23;20466;-86
2021/10/15 13:10:21;;;;;;;7.33;2.63;;;15.70;99.80;;;;;;6038307;23;20414;-85
2021/10/15 13:12:52;;;;;;;3.90;2.10;;;15.60;99.90;;;;;;6163264;23;20415;-85
2021/10/15 13:15:30;;;;;;;4.80;2.13;;;15.60;99.90;;;;;;6130910;23;20848;-85
2021/10/15 13:18:20;;;;;;;2.87;1.90;;;15.70;99.70;;;;;;6123987;23;20449;-85
2021/10/15 13:21:31;;;;;;;3.60;2.10;;;15.70;99.30;;;;;;6036822;23;20533;-86
2021/10/15 13:24:24;;;;;;;4.27;1.90;;;15.90;98.30;;;;;;6076377;23;20425;-83
2021/10/15 13:26:51;;;;;;;4.10;2.30;;;16.00;97.20;;;;;;6147832;23;20924;-86
2021/10/15 13:29:19;;;;;;;5.93;1.77;;;16.00;96.80;;;;;;6149826;23;20395;-84
2021/10/15 13:31:46;;;;;;;4.60;2.00;;;15.90;96.70;;;;;;6165905;23;20782;-86
2021/10/15 13:34:12;;;;;;;3.27;1.67;;;15.90;97.00;;;;;;6154555;23;20577;-87
2021/10/15 13:36:43;;;;;;;5.17;2.23;;;15.70;97.00;;;;;;6160504;23;20438;-84
2021/10/15 13:39:11;;;;;;;4.70;2.30;;;15.70;97.20;;;;;;6144644;23;20618;-84
2021/10/15 13:41:52;;;;;;;8.00;2.70;;;15.90;97.40;;;;;;6120171;23;20894;-81
2021/10/15 13:52:28;;;;;;;3.40;1.90;;;16.80;95.00;;;;;;6198229;23;20432;-83
2021/10/15 13:54:54;;;;;;;2.53;1.30;;;16.80;95.00;;;;;;6218387;23;20502;-83
2021/10/15 13:57:23;;;;;;;4.37;2.40;;;16.90;92.80;;;;;;6251112;23;20404;-82
2021/10/15 14:00:06;;;;;;;2.00;1.10;;;16.70;92.70;;;;;;6252898;22;20594;-85
2021/10/15 14:02:40;;;;;;;3.80;1.93;;;16.70;92.70;;;;;;6250749;23;20796;-83
2021/10/15 14:05:07;;;;;;;2.93;1.80;;;16.50;93.00;;;;;;6226220;23;20423;-86
2021/10/15 14:07:36;;;;;;;2.60;1.47;;;16.20;93.80;;;;;;6248291;23;20408;-82
2021/10/15 14:10:07;;;;;;;6.90;3.63;;;16.40;93.70;;;;;;6222660;23;20579;-83
2021/10/15 14:12:48;;;;;;;3.53;1.93;;;16.40;93.40;;;;;;6184240;23;20602;-85
2021/10/15 14:15:38;;;;;;;;;;;;;;;;;;;;;
2021/10/15 14:18:33;;;;;;;8.00;4.90;;;16.30;93.10;;;;;;6243086;23;20400;-82
2021/10/15 14:21:02;;;;;;;5.53;2.60;;;16.00;93.60;;;;;;6245065;23;20408;-84
2021/10/15 14:23:54;;;;;;;3.30;1.90;;;15.80;93.40;;;;;;6244341;23;20438;-84
2021/10/15 14:26:47;;;;;;;4.10;2.20;;;15.80;92.80;;;;;;6201914;23;20404;-83
2021/10/15 14:30:25;;;;;;;3.57;1.93;;;15.80;93.00;;;;;;6218916;23;20431;-86
2021/10/15 14:33:18;;;;;;;3.43;2.50;;;15.70;92.80;;;;;;6091126;23;21014;-83
2021/10/15 14:35:52;;;;;;;5.57;2.70;;;15.70;92.90;;;;;;6245774;23;20933;-83
2021/10/15 14:38:39;;;;;;;4.03;2.60;;;15.60;92.90;;;;;;6212282;23;20389;-84
2021/10/15 14:41:27;;;;;;;2.40;2.00;;;15.60;92.80;;;;;;6246467;23;20441;-83
2021/10/15 14:43:57;;;;;;;8.70;2.00;;;15.50;92.90;;;;;;6246163;23;20462;-85
2021/10/15 14:46:26;;;;;;;4.30;2.20;;;15.80;92.80;;;;;;6244235;23;21058;-84
2021/10/15 14:48:54;;;;;;;4.60;2.17;;;15.70;92.60;;;;;;6243439;23;20476;-83
2021/10/15 14:51:24;;;;;;;5.47;2.37;;;15.50;92.40;;;;;;6243608;23;20442;-83
2021/10/15 14:53:51;;;;;;;4.57;2.93;;;15.50;92.20;;;;;;6244281;23;20826;-84
2021/10/15 14:59:20;;;;;;;4.30;2.27;;;15.40;92.40;;;;;;6244616;23;20400;-86
2021/10/15 15:01:47;;;;;;;5.23;2.20;;;15.40;92.40;;;;;;6216759;23;20398;-85
2021/10/15 15:04:15;;;;;;;7.13;3.07;;;15.30;92.50;;;;;;6246951;23;20435;-83
2021/10/15 15:11:47;;;;;;;4.50;2.13;;;15.40;92.10;;;;;;6239863;23;20495;-84
2021/10/15 15:14:11;;;;;;;8.23;2.97;;;15.60;91.80;;;;;;6227496;23;20426;-82
2021/10/15 15:17:05;;;;;;;7.53;3.30;;;15.40;92.20;;;;;;6246166;23;20815;-82
2021/10/15 15:19:51;;;;;;;3.60;2.87;;;15.60;91.80;;;;;;6101788;23;20404;-83
2021/10/15 15:22:22;;;;;;;5.97;3.03;;;15.50;92.40;;;;;;6124348;23;20490;-83
2021/10/15 15:24:52;;;;;;;5.57;4.03;;;15.70;92.30;;;;;;6103411;23;20424;-83
2021/10/15 15:27:19;;;;;;;4.50;3.30;;;15.60;92.40;;;;;;6127560;23;20899;-85
2021/10/15 15:29:46;;;;;;;4.40;3.67;;;15.70;92.70;;;;;;6126650;23;20419;-82
2021/10/15 15:32:16;;;;;;;6.30;3.30;;;15.80;92.40;;;;;;6131861;23;20414;-82
2021/10/15 15:34:46;;;;;;;12.13;9.70;;;15.50;92.60;;;;;;6108928;23;20439;-86
2021/10/15 15:37:14;;;;;;;19.40;13.53;;;15.50;93.20;;;;;;6103818;23;20411;-82
2021/10/15 15:39:43;;;;;;;26.53;19.30;;;15.40;93.60;;;;;;6097817;23;20426;-85
2021/10/15 15:42:11;;;;;;;6.87;4.63;;;15.60;93.80;;;;;;6097165;23;20392;-83
2021/10/15 15:44:40;;;;;;;4.93;3.53;;;15.50;93.80;;;;;;6120666;23;20419;-83
2021/10/15 15:47:10;;;;;;;5.13;3.20;;;15.60;93.50;;;;;;6095700;23;20829;-84
2021/10/15 15:49:40;;;;;;;4.23;2.60;;;15.80;93.30;;;;;;6096561;23;20509;-84
2021/10/15 15:57:30;;;;;;;7.73;6.87;;;15.60;93.90;;;;;;6277497;22;20426;-86
2021/10/15 15:59:58;;;;;;;6.63;2.93;;;15.90;93.60;;;;;;6275496;22;20966;-88
2021/10/15 16:10:25;;;;;;;9.47;2.83;;;15.50;94.30;;;;;;6271984;22;20615;-86
2021/10/15 16:20:55;;;;;;;4.33;2.40;;;15.10;94.90;;;;;;6038308;23;20391;-86
2021/10/15 16:23:25;;;;;;;3.90;2.83;;;14.90;95.30;;;;;;6115944;23;20424;-86
2021/10/15 16:26:58;;;;;;;;;;;;;;;;;;;;;
2021/10/15 16:30:58;;;;;;;6.87;2.53;;;14.90;95.80;;;;;;6067055;23;20448;-84
2021/10/15 16:59:36;;;;;;;5.40;3.20;;;14.60;97.20;;;;;;6287550;22;20363;-85
2021/10/15 17:02:22;;;;;;;4.80;2.30;;;14.50;97.30;;;;;;6288219;22;20486;-86
2021/10/15 17:13:13;;;;;;;2.80;2.47;;;14.40;97.80;;;;;;6209478;22;20455;-86
2021/10/15 17:15:40;;;;;;;4.90;4.33;;;14.30;98.10;;;;;;6234157;23;20439;-85
2021/10/15 17:19:10;;;;;;;;;;;;;;;;;;;;;
2021/10/15 17:25:17;;;;;;;6.90;3.93;;;14.30;98.30;;;;;;6263762;22;20447;-84
2021/10/15 17:32:26;;;;;;;6.17;3.37;;;14.20;98.20;;;;;;6119480;23;20434;-86
2021/10/15 17:34:53;;;;;;;6.30;4.33;;;14.20;98.40;;;;;;6100695;23;20444;-86
2021/10/15 17:37:20;;;;;;;7.93;5.20;;;14.20;98.40;;;;;;6099579;23;20416;-87
2021/10/15 17:55:00;;;;;;;7.13;3.50;;;14.10;97.40;;;;;;6115523;23;20947;-84
2021/10/15 18:01:03;;;;;;;5.47;3.90;;;14.10;97.40;;;;;;6114470;23;20386;-83
2021/10/15 18:07:54;;;;;;;4.60;2.63;;;14.00;97.30;;;;;;6203388;22;20423;-84
2021/10/15 18:10:52;;;;;;;16.43;6.27;;;13.90;97.30;;;;;;6065184;23;21001;-84
2021/10/15 18:13:19;;;;;;;5.90;3.10;;;13.90;97.60;;;;;;6113903;23;20482;-83
2021/10/15 18:15:47;;;;;;;6.63;3.77;;;13.90;97.70;;;;;;6112353;23;20442;-84
2021/10/15 18:19:13;;;;;;;8.87;3.30;;;13.80;97.80;;;;;;6113816;23;20446;-84
2021/10/15 18:21:41;;;;;;;5.00;3.20;;;13.80;97.90;;;;;;6016797;23;20416;-87
2021/10/15 18:24:08;;;;;;;6.17;3.57;;;13.80;98.00;;;;;;6234049;22;20461;-86
2021/10/15 18:26:50;;;;;;;7.13;3.60;;;13.80;98.10;;;;;;6262550;22;20403;-83
2021/10/15 18:37:46;;;;;;;5.67;3.37;;;13.70;98.50;;;;;;6170178;23;20485;-85
2021/10/15 18:40:33;;;;;;;8.63;3.10;;;13.70;98.60;;;;;;6092194;23;20533;-83
2021/10/15 18:42:59;;;;;;;6.60;3.70;;;13.80;98.70;;;;;;6147065;23;20464;-83
2021/10/15 18:45:44;;;;;;;8.50;3.50;;;13.80;98.70;;;;;;6207798;23;20419;-83
2021/10/15 18:52:17;;;;;;;4.70;3.17;;;13.80;98.60;;;;;;6115344;23;20401;-87
2021/10/15 18:55:41;;;;;;;7.63;4.13;;;13.90;98.60;;;;;;6227710;23;20423;-87
2021/10/15 18:58:41;;;;;;;15.27;5.13;;;14.30;97.70;;;;;;6208155;23;20414;-86
2021/10/15 19:01:10;;;;;;;9.13;4.20;;;14.40;96.60;;;;;;6235026;23;20459;-87
2021/10/15 19:03:40;;;;;;;7.27;4.77;;;14.30;96.40;;;;;;6246587;23;20428;-84
2021/10/15 19:06:13;;;;;;;8.40;4.47;;;14.10;96.80;;;;;;6237427;23;20412;-83
2021/10/15 19:08:40;;;;;;;9.60;4.70;;;13.90;97.20;;;;;;6237724;23;20426;-83
2021/10/15 19:11:10;;;;;;;11.80;4.87;;;14.00;97.40;;;;;;6235954;23;20454;-86
2021/10/15 19:14:31;;;;;;;9.47;5.13;;;14.20;97.00;;;;;;6233787;23;20478;-86
2021/10/15 19:16:57;;;;;;;9.73;4.90;;;14.20;96.80;;;;;;6209007;23;20450;-85
2021/10/15 19:23:39;;;;;;;12.60;4.37;;;13.90;97.20;;;;;;6125083;23;20466;-86